createdAt,value
2018-05-07T00:00:21.971Z,65.30
2018-05-07T00:05:25.582Z,65.90
2018-05-07T00:10:28.945Z,65.90
2018-05-07T00:15:32.257Z,66.20
2018-05-07T00:20:35.454Z,66.20
2018-05-07T00:25:38.676Z,66.80
2018-05-07T00:30:41.914Z,67.00
2018-05-07T00:35:45.222Z,67.20
2018-05-07T00:40:50.153Z,67.30
2018-05-07T00:45:53.352Z,67.30
2018-05-07T00:50:56.644Z,67.00
2018-05-07T00:56:02.269Z,67.00
2018-05-07T01:01:05.458Z,67.20
2018-05-07T01:06:08.713Z,67.40
2018-05-07T01:11:11.966Z,67.70
2018-05-07T01:16:15.226Z,67.60
2018-05-07T01:21:18.483Z,67.70
2018-05-07T01:26:21.689Z,68.00
2018-05-07T01:31:25.295Z,68.40
2018-05-07T01:36:28.592Z,68.40
2018-05-07T01:41:31.908Z,68.80
2018-05-07T01:52:10.013Z,69.00
2018-05-07T01:57:13.548Z,69.20
2018-05-07T02:02:16.732Z,69.60
2018-05-07T02:07:21.134Z,69.80
2018-05-07T02:12:25.401Z,70.30
2018-05-07T02:17:28.569Z,70.30
2018-05-07T02:22:32.154Z,70.50
2018-05-07T02:27:35.469Z,70.50
2018-05-07T02:32:38.702Z,70.80
2018-05-07T02:37:44.622Z,71.20
2018-05-07T02:42:47.901Z,71.20
2018-05-07T02:47:52.676Z,71.40
2018-05-07T02:52:57.660Z,71.70
2018-05-07T02:58:00.950Z,72.10
2018-05-07T03:03:04.209Z,72.30
2018-05-07T03:08:07.568Z,72.40
2018-05-07T03:13:11.894Z,72.40
2018-05-07T03:18:15.215Z,72.60
2018-05-07T03:23:18.826Z,73.10
2018-05-07T03:28:22.464Z,73.50
2018-05-07T03:33:25.711Z,73.50
2018-05-07T03:38:28.956Z,74.00
2018-05-07T03:43:32.563Z,75.70
2018-05-07T03:48:36.229Z,76.10
2018-05-07T03:53:39.459Z,76.10
2018-05-07T03:58:43.621Z,76.40
2018-05-07T04:03:47.283Z,77.80
2018-05-07T04:08:50.842Z,77.80
2018-05-07T04:13:54.076Z,78.30
2018-05-07T04:19:09.180Z,78.00
2018-05-07T04:24:12.400Z,78.00
2018-05-07T04:29:15.630Z,77.50
2018-05-07T04:34:18.965Z,77.60
2018-05-07T04:39:22.575Z,77.70
2018-05-07T04:44:26.206Z,77.10
2018-05-07T04:49:29.491Z,77.10
2018-05-07T04:54:33.113Z,76.30
2018-05-07T04:59:36.728Z,76.20
2018-05-07T05:04:40.343Z,76.00
2018-05-07T05:09:43.973Z,76.10
2018-05-07T05:14:47.199Z,76.10
2018-05-07T05:19:50.438Z,75.60
2018-05-07T05:24:54.380Z,75.90
2018-05-07T05:29:58.115Z,76.50
2018-05-07T05:35:01.740Z,76.50
2018-05-07T05:40:05.038Z,76.50
2018-05-07T05:45:08.747Z,75.80
2018-05-07T05:50:12.389Z,76.20
2018-05-07T05:55:15.660Z,76.20
2018-05-07T06:00:18.895Z,74.60
2018-05-07T06:05:22.392Z,73.80
2018-05-07T06:10:26.030Z,74.20
2018-05-07T06:15:29.316Z,74.30
2018-05-07T06:20:32.932Z,73.60
2018-05-07T06:25:36.561Z,72.40
2018-05-07T06:30:39.850Z,72.40
2018-05-07T06:35:43.584Z,71.90
2018-05-07T06:40:46.802Z,71.90
2018-05-07T06:45:50.249Z,71.70
2018-05-07T06:50:53.716Z,71.50
2018-05-07T06:55:57.254Z,71.80
2018-05-07T07:01:00.501Z,71.40
2018-05-07T07:06:03.794Z,71.40
2018-05-07T07:11:07.017Z,71.70
2018-05-07T07:16:10.258Z,71.00
2018-05-07T07:21:13.493Z,70.60
2018-05-07T07:26:16.735Z,71.40
2018-05-07T07:31:19.969Z,71.60
2018-05-07T07:36:23.223Z,70.50
2018-05-07T07:41:26.460Z,70.50
2018-05-07T07:46:30.085Z,70.40
2018-05-07T07:51:33.706Z,71.00
2018-05-07T07:56:36.931Z,71.00
2018-05-07T08:01:40.190Z,69.40
2018-05-07T08:06:43.841Z,71.00
2018-05-07T08:11:47.236Z,71.00
2018-05-07T08:16:50.852Z,70.50
2018-05-07T08:21:54.476Z,70.50
2018-05-07T08:26:57.686Z,70.50
2018-05-07T08:32:00.997Z,68.40
2018-05-07T08:37:04.293Z,69.50
2018-05-07T08:42:07.510Z,67.70
2018-05-07T08:47:10.794Z,68.30
2018-05-07T08:52:14.429Z,69.00
2018-05-07T08:57:17.658Z,68.90
2018-05-07T09:02:20.921Z,70.90
2018-05-07T09:07:24.551Z,70.40
2018-05-07T09:12:27.833Z,70.40
2018-05-07T09:17:31.489Z,69.20
2018-05-07T09:22:34.840Z,69.20
2018-05-07T09:27:38.061Z,69.40
2018-05-07T09:32:41.283Z,69.50
2018-05-07T09:37:45.088Z,69.40
2018-05-07T09:42:48.712Z,68.70
2018-05-07T09:47:52.351Z,67.40
2018-05-07T09:52:55.564Z,67.40
2018-05-07T09:58:04.673Z,67.30
2018-05-07T10:03:08.304Z,67.50
2018-05-07T10:08:11.555Z,67.50
2018-05-07T10:13:14.894Z,66.30
2018-05-07T10:18:18.122Z,67.20
2018-05-07T10:23:21.757Z,66.30
2018-05-07T10:28:25.777Z,66.30
2018-05-07T10:33:29.000Z,66.30
2018-05-07T10:38:32.223Z,66.10
2018-05-07T10:43:35.473Z,67.50
2018-05-07T10:48:39.098Z,65.20
2018-05-07T10:53:42.326Z,65.20
2018-05-07T10:58:45.557Z,66.10
2018-05-07T11:03:48.787Z,64.80
2018-05-07T11:08:52.102Z,64.00
2018-05-07T11:13:55.738Z,61.70
2018-05-07T11:18:58.970Z,61.70
2018-05-07T11:24:03.096Z,63.00
2018-05-07T11:29:06.475Z,64.00
2018-05-07T11:34:09.711Z,62.00
2018-05-07T11:39:13.031Z,61.50
2018-05-07T11:44:16.614Z,61.70
2018-05-07T11:49:19.835Z,61.70
2018-05-07T11:54:23.060Z,58.00
2018-05-07T11:59:26.299Z,55.90
2018-05-07T12:04:29.590Z,56.00
2018-05-07T12:09:33.020Z,55.80
2018-05-07T12:14:36.743Z,52.90
2018-05-07T12:19:40.472Z,53.40
2018-05-07T12:24:43.859Z,53.30
2018-05-07T12:29:47.166Z,51.90
2018-05-07T12:34:50.489Z,51.30
2018-05-07T12:39:54.193Z,49.10
2018-05-07T12:44:57.869Z,48.50
2018-05-07T12:50:01.092Z,48.50
2018-05-07T12:55:04.347Z,50.10
2018-05-07T13:00:07.627Z,50.10
2018-05-07T13:05:10.865Z,49.60
2018-05-07T13:10:14.092Z,50.20
2018-05-07T13:15:17.365Z,49.80
2018-05-07T13:20:20.991Z,48.20
2018-05-07T13:25:24.295Z,48.20
2018-05-07T13:30:28.250Z,48.50
2018-05-07T13:35:31.661Z,50.50
2018-05-07T13:40:35.928Z,50.80
2018-05-07T13:45:39.750Z,51.40
2018-05-07T13:50:43.056Z,51.30
2018-05-07T13:55:46.342Z,53.30
2018-05-07T14:00:49.600Z,53.40
2018-05-07T14:05:52.995Z,52.70
2018-05-07T14:10:56.383Z,52.90
2018-05-07T14:15:59.640Z,53.60
2018-05-07T14:21:02.883Z,52.70
2018-05-07T14:26:06.173Z,52.20
2018-05-07T14:31:09.516Z,51.90
2018-05-07T14:36:12.929Z,49.30
2018-05-07T14:41:16.549Z,49.00
2018-05-07T14:46:20.245Z,48.10
2018-05-07T14:51:23.549Z,48.10
2018-05-07T14:56:26.926Z,46.80
2018-05-07T15:01:30.396Z,47.30
2018-05-07T15:06:34.828Z,46.20
2018-05-07T15:11:38.099Z,46.20
2018-05-07T15:16:41.339Z,46.30
2018-05-07T15:21:44.729Z,45.90
2018-05-07T15:26:48.098Z,45.70
2018-05-07T15:31:51.334Z,47.10
2018-05-07T15:36:54.683Z,47.90
2018-05-07T15:41:57.908Z,49.90
2018-05-07T15:47:01.138Z,52.20
2018-05-07T15:52:04.481Z,54.10
2018-05-07T15:57:08.163Z,56.40
2018-05-07T16:02:11.510Z,56.40
2018-05-07T16:07:14.784Z,57.10
2018-05-07T16:12:18.218Z,57.00
2018-05-07T16:17:21.472Z,57.50
2018-05-07T16:22:24.711Z,57.90
2018-05-07T16:27:27.944Z,58.50
2018-05-07T16:32:31.559Z,59.30
2018-05-07T16:37:35.279Z,59.70
2018-05-07T16:42:38.627Z,59.70
2018-05-07T16:47:41.992Z,60.20
2018-05-07T16:52:45.679Z,60.50
2018-05-07T16:57:49.030Z,60.50
2018-05-07T17:02:52.561Z,61.00
2018-05-07T17:07:56.035Z,61.80
2018-05-07T17:12:59.775Z,62.90
2018-05-07T17:18:03.104Z,62.90
2018-05-07T17:23:06.341Z,63.50
2018-05-07T17:28:09.691Z,64.70
2018-05-07T17:33:12.919Z,65.30
2018-05-07T17:38:16.148Z,67.90
2018-05-07T17:43:19.367Z,70.10
2018-05-07T17:48:34.508Z,70.90
2018-05-07T17:53:37.749Z,71.00
2018-05-07T17:58:41.272Z,72.10
2018-05-07T18:03:44.414Z,74.40
2018-05-07T18:08:47.795Z,76.70
2018-05-07T18:13:51.124Z,77.90
2018-05-07T18:18:54.831Z,80.10
2018-05-07T18:23:58.505Z,80.90
2018-05-07T18:29:01.736Z,80.90
2018-05-07T18:34:04.980Z,80.30
2018-05-07T18:39:08.243Z,79.90
2018-05-07T18:44:11.455Z,79.30
2018-05-07T18:49:14.754Z,79.30
2018-05-07T18:54:17.999Z,79.00
2018-05-07T18:59:21.288Z,79.20
2018-05-07T19:04:24.906Z,80.70
2018-05-07T19:09:28.558Z,81.60
2018-05-07T19:14:31.787Z,81.60
2018-05-07T19:19:35.017Z,82.10
2018-05-07T19:24:38.328Z,82.50
2018-05-07T19:29:41.950Z,82.50
2018-05-07T19:34:45.250Z,82.50
2018-05-07T19:39:48.488Z,82.80
2018-05-07T19:44:51.865Z,84.50
2018-05-07T19:49:55.079Z,85.70
2018-05-07T19:54:58.954Z,85.80
2018-05-07T20:00:02.059Z,85.80
2018-05-07T20:05:05.335Z,85.80
2018-05-07T20:10:09.258Z,86.20
2018-05-07T20:15:12.512Z,86.50
2018-05-07T20:20:15.852Z,87.30
2018-05-07T20:25:19.660Z,85.90
2018-05-07T20:30:24.402Z,85.10
2018-05-07T20:35:28.054Z,84.40
2018-05-07T20:40:31.318Z,84.40
2018-05-07T20:45:34.568Z,84.30
2018-05-07T20:50:38.240Z,83.60
2018-05-07T20:55:41.979Z,79.60
2018-05-07T21:00:45.983Z,75.90
2018-05-07T21:05:50.135Z,74.70
2018-05-07T21:10:53.900Z,74.80
2018-05-07T21:15:57.879Z,75.00
2018-05-07T21:21:01.989Z,75.80
2018-05-07T21:26:05.627Z,77.30
2018-05-07T21:31:08.872Z,77.30
2018-05-07T21:36:12.081Z,79.00
2018-05-07T21:41:15.290Z,81.40
2018-05-07T21:46:18.498Z,82.00
2018-05-07T21:51:21.724Z,79.60
2018-05-07T21:56:25.342Z,74.80
2018-05-07T22:01:29.064Z,73.60
2018-05-07T22:06:33.562Z,72.80
2018-05-07T22:11:37.003Z,72.90
2018-05-07T22:16:40.801Z,72.50
2018-05-07T22:21:44.340Z,72.50
2018-05-07T22:26:48.342Z,72.50
2018-05-07T22:31:52.005Z,72.50
2018-05-07T22:36:55.385Z,72.60
2018-05-07T22:41:58.701Z,72.60
2018-05-07T22:47:01.977Z,72.80
2018-05-07T22:52:05.303Z,72.90
2018-05-07T22:57:08.552Z,73.10
2018-05-07T23:02:11.911Z,72.80
2018-05-07T23:07:15.290Z,72.60
2018-05-07T23:12:18.730Z,72.70
2018-05-07T23:17:22.036Z,72.70
2018-05-07T23:22:25.856Z,72.60
2018-05-07T23:27:29.070Z,72.90
2018-05-07T23:32:32.753Z,74.00
2018-05-07T23:37:36.018Z,74.00
2018-05-07T23:42:39.266Z,74.40
2018-05-07T23:47:42.804Z,74.50
2018-05-07T23:52:46.105Z,74.70
2018-05-07T23:57:49.330Z,74.70
